Time;durP1;ratioP1;P1;durP2;ratioP2;P2;SDS_P1;SDS_P2;PMS_P1;PMS_P2;Temp;Humidity;BMP_temperature;BMP_pressure;BME280_temperature;BME280_humidity;BME280_pressure;Samples;Min_cycle;Max_cycle;Signal;HPM_P1;HPM_P2
2021/07/12 00:01:55;;;;;;;11.45;8.18;;;;;;;19.14;75.36;100578.50;1763451;80;21024;-75
2021/07/12 00:04:21;;;;;;;9.40;8.35;;;;;;;19.13;75.48;100583.08;1763773;81;21718;-75
2021/07/12 00:06:47;;;;;;;15.58;8.55;;;;;;;19.11;75.58;100600.03;1763867;80;20984;-78
2021/07/12 00:09:13;;;;;;;10.32;8.85;;;;;;;19.08;75.73;100596.94;1763979;80;21003;-77
2021/07/12 00:11:39;;;;;;;10.82;8.50;;;;;;;19.05;75.85;100610.89;1763846;81;21070;-78
2021/07/12 00:14:05;;;;;;;10.95;7.60;;;;;;;18.98;76.05;100612.30;1763592;80;20994;-78
2021/07/12 00:16:31;;;;;;;9.68;6.72;;;;;;;18.91;76.17;100627.73;1764024;81;21628;-79
2021/07/12 00:18:57;;;;;;;9.35;5.87;;;;;;;18.84;76.32;100612.09;1763915;81;21020;-79
2021/07/12 00:21:23;;;;;;;5.40;4.90;;;;;;;18.72;76.48;100601.66;1763488;80;20988;-79
2021/07/12 00:23:49;;;;;;;5.53;4.37;;;;;;;18.63;76.56;100590.83;1763863;80;21094;-77
2021/07/12 00:26:17;;;;;;;6.30;5.17;;;;;;;18.52;76.66;100582.89;1763742;81;21021;-76
2021/07/12 00:28:43;;;;;;;6.47;5.80;;;;;;;18.42;76.74;100588.73;1741848;81;21970;-76
2021/07/12 00:31:09;;;;;;;7.78;6.97;;;;;;;18.34;76.79;100580.88;1763340;80;20987;-75
2021/07/12 00:33:35;;;;;;;8.30;5.90;;;;;;;18.28;76.83;100569.60;1763648;80;21532;-75
2021/07/12 00:36:01;;;;;;;6.25;5.62;;;;;;;18.21;76.91;100566.11;1763350;81;20992;-74
2021/07/12 00:38:27;;;;;;;7.58;6.80;;;;;;;18.17;76.94;100555.43;1763466;81;21055;-74
2021/07/12 00:40:54;;;;;;;7.55;6.75;;;;;;;18.16;76.98;100558.33;1763720;81;21117;-74
2021/07/12 00:43:20;;;;;;;9.70;6.75;;;;;;;18.12;77.03;100555.23;1763004;81;21540;-76
2021/07/12 00:45:46;;;;;;;7.12;6.45;;;;;;;18.09;77.08;100552.97;1763424;80;21028;-76
2021/07/12 00:48:12;;;;;;;7.08;6.17;;;;;;;18.04;77.14;100551.97;1762593;81;21023;-75
2021/07/12 00:50:42;;;;;;;7.00;6.28;;;;;;;18.00;77.22;100554.27;1763229;80;21064;-75
2021/07/12 00:53:09;;;;;;;7.87;6.35;;;;;;;17.96;77.26;100565.17;1763590;81;25919;-75
2021/07/12 00:55:44;;;;;;;8.40;7.12;;;;;;;17.96;77.32;100570.58;1741187;81;21024;-74
2021/07/12 00:58:14;;;;;;;8.28;7.53;;;;;;;17.97;77.37;100570.89;1763544;80;21728;-74
2021/07/12 01:00:41;;;;;;;9.70;7.10;;;;;;;17.96;77.39;100570.58;1760297;81;21429;-74
2021/07/12 01:03:09;;;;;;;7.55;6.85;;;;;;;17.98;77.46;100563.63;1763526;80;21075;-74
2021/07/12 01:05:37;;;;;;;7.83;7.00;;;;;;;17.98;77.51;100563.63;1763460;81;21807;-74
2021/07/12 01:08:03;;;;;;;8.70;7.80;;;;;;;17.98;77.54;100559.58;1763791;81;21056;-74
2021/07/12 01:10:29;;;;;;;9.73;7.15;;;;;;;17.96;77.59;100553.03;1763783;81;21015;-74
2021/07/12 01:13:25;;;;;;;8.53;7.62;;;;;;;17.93;77.67;100542.67;1763441;80;21547;-74
2021/07/12 01:16:03;;;;;;;8.53;7.67;;;;;;;17.91;77.73;100534.78;1763975;80;21555;-74
2021/07/12 01:18:41;;;;;;;8.95;8.15;;;;;;;17.88;77.82;100533.86;1763731;81;21936;-74
2021/07/12 01:21:37;;;;;;;10.18;8.75;;;;;;;17.87;77.95;100521.95;1763769;81;21067;-74
2021/07/12 01:24:26;;;;;;;10.18;9.13;;;;;;;17.86;78.01;100517.59;1728353;81;21520;-73
2021/07/12 01:27:24;;;;;;;8.98;8.08;;;;;;;17.87;78.12;100520.60;1763721;81;21015;-74
2021/07/12 01:30:14;;;;;;;9.50;8.55;;;;;;;17.86;78.21;100518.94;1764096;80;21488;-74
2021/07/12 01:32:46;;;;;;;11.28;10.03;;;;;;;17.86;78.29;100518.94;1764235;80;21161;-74
2021/07/12 01:35:39;;;;;;;9.53;8.53;;;;;;;17.88;78.40;100519.02;1763443;80;21050;-73
2021/07/12 01:38:13;;;;;;;11.33;10.20;;;;;;;17.90;78.50;100506.68;1764106;81;21015;-73
2021/07/12 01:40:57;;;;;;;11.38;10.32;;;;;;;17.92;78.57;100507.28;1764748;81;20976;-73
2021/07/12 01:44:04;;;;;;;12.10;11.03;;;;;;;17.95;78.65;100508.19;1764806;80;21437;-73
2021/07/12 01:46:54;;;;;;;11.22;10.18;;;;;;;17.96;78.75;100511.20;1764882;81;21100;-73
2021/07/12 01:49:32;;;;;;;12.47;10.78;;;;;;;17.99;78.86;100499.98;1764712;81;21005;-73
2021/07/12 01:52:19;;;;;;;12.35;11.10;;;;;;;18.01;78.93;100499.26;1764765;80;20916;-73
2021/07/12 01:55:06;;;;;;;14.47;10.88;;;;;;;18.03;79.03;100493.11;1764573;81;21448;-73
2021/07/12 01:57:35;;;;;;;13.13;10.45;;;;;;;18.05;79.13;100497.75;1764689;81;21000;-73
2021/07/12 02:00:11;;;;;;;13.62;11.38;;;;;;;18.05;79.22;100485.61;1765025;81;21135;-73
2021/07/12 02:02:40;;;;;;;14.85;13.32;;;;;;;18.07;79.31;100491.64;1764672;80;21095;-73
2021/07/12 02:05:10;;;;;;;12.47;10.97;;;;;;;18.08;79.38;100497.35;1764956;81;20853;-73
2021/07/12 02:07:36;;;;;;;11.88;10.48;;;;;;;18.09;79.43;100501.69;1764960;81;20964;-73
2021/07/12 02:10:03;;;;;;;12.20;10.93;;;;;;;18.10;79.50;100502.00;1764983;81;20983;-73
2021/07/12 02:12:29;;;;;;;11.35;10.32;;;;;;;18.11;79.59;100501.48;1765053;81;20881;-73
2021/07/12 02:14:55;;;;;;;12.93;10.48;;;;;;;18.11;79.65;100499.61;1764948;81;20967;-73
2021/07/12 02:17:22;;;;;;;13.13;9.70;;;;;;;18.14;79.76;100501.87;1765122;80;20916;-73
2021/07/12 02:19:48;;;;;;;12.95;10.70;;;;;;;18.16;79.81;100504.34;1764849;80;21465;-73
2021/07/12 02:25:32;;;;;;;11.08;10.08;;;;;;;18.22;79.93;100492.70;1926235;74;22350;-73
2021/07/12 02:27:58;;;;;;;11.30;10.30;;;;;;;18.17;80.00;100504.14;1865456;77;20936;-73
2021/07/12 02:30:24;;;;;;;12.95;10.78;;;;;;;18.17;80.06;100504.14;1865404;77;21108;-73
2021/07/12 02:32:50;;;;;;;16.10;13.10;;;;;;;18.20;80.12;100511.80;1865500;77;20888;-73
2021/07/12 02:35:16;;;;;;;15.50;13.80;;;;;;;18.21;80.18;100525.61;1862359;77;20950;-73
2021/07/12 02:37:44;;;;;;;17.57;15.70;;;;;;;18.23;80.21;100534.31;1865482;77;20943;-73
2021/07/12 02:40:12;;;;;;;16.17;13.60;;;;;;;18.23;80.25;100544.27;1865533;76;21054;-73
2021/07/12 02:42:40;;;;;;;15.83;13.45;;;;;;;18.18;80.31;100540.89;1866281;77;21381;-73
2021/07/12 02:45:08;;;;;;;15.75;12.20;;;;;;;18.14;80.38;100542.88;1866285;76;20884;-73
2021/07/12 02:47:35;;;;;;;16.35;13.30;;;;;;;18.13;80.46;100529.91;1865946;77;20995;-73
2021/07/12 02:50:03;;;;;;;14.98;12.88;;;;;;;18.13;80.54;100516.41;1866163;76;20964;-74
2021/07/12 02:52:32;;;;;;;15.78;12.95;;;;;;;18.14;80.59;100508.63;1866126;77;21010;-77
2021/07/12 02:54:59;;;;;;;15.30;13.80;;;;;;;18.12;80.64;100501.25;1865838;77;22628;-78
2021/07/12 02:57:27;;;;;;;14.65;13.25;;;;;;;18.12;80.71;100499.89;1866004;77;21111;-78
2021/07/12 02:59:54;;;;;;;15.23;12.93;;;;;;;18.12;80.76;100486.41;1835425;77;20972;-77
2021/07/12 03:02:20;;;;;;;13.68;12.25;;;;;;;18.12;80.79;100490.45;1866117;77;21585;-77
2021/07/12 03:04:46;;;;;;;15.95;13.35;;;;;;;18.09;80.86;100507.08;1865973;77;20955;-76
2021/07/12 03:07:33;;;;;;;13.85;12.43;;;;;;;18.10;80.91;100507.91;1866201;76;21112;-77
2021/07/12 03:10:03;;;;;;;15.38;13.48;;;;;;;18.08;80.92;100506.80;1866011;77;21002;-78
2021/07/12 03:12:50;;;;;;;16.48;13.72;;;;;;;18.09;81.05;100485.48;1865711;77;20991;-79
2021/07/12 03:15:22;;;;;;;16.65;13.68;;;;;;;18.09;81.08;100482.79;1866079;77;21065;-82
2021/07/12 03:17:51;;;;;;;17.48;14.18;;;;;;;18.07;81.15;100457.90;1864829;77;20948;-82
2021/07/12 03:20:17;;;;;;;15.05;13.10;;;;;;;18.03;81.22;100463.42;1866299;77;21011;-81
2021/07/12 03:22:49;;;;;;;17.15;13.83;;;;;;;18.01;81.26;100468.73;1864507;77;21002;-81
2021/07/12 03:25:19;;;;;;;23.95;13.48;;;;;;;17.94;81.31;100469.58;1863677;77;21100;-82
2021/07/12 03:27:45;;;;;;;15.25;12.55;;;;;;;17.93;81.37;100464.42;1864075;77;20978;-83
2021/07/12 03:30:12;;;;;;;22.52;20.10;;;;;;;17.88;81.44;100428.62;1864002;76;21049;-83
2021/07/12 03:32:38;;;;;;;18.45;16.17;;;;;;;17.82;81.54;100417.36;1864070;77;21070;-83
2021/07/12 03:35:05;;;;;;;15.18;13.58;;;;;;;17.80;81.65;100435.62;1863771;77;20982;-82
2021/07/12 03:37:32;;;;;;;13.70;12.30;;;;;;;17.78;81.72;100421.53;1863551;77;21093;-80
2021/07/12 03:39:58;;;;;;;14.43;12.20;;;;;;;17.77;81.80;100435.22;1863345;77;20975;-80
2021/07/12 03:42:24;;;;;;;12.53;11.22;;;;;;;17.77;81.88;100436.05;1863554;77;21049;-79
2021/07/12 03:44:52;;;;;;;12.43;11.18;;;;;;;17.79;81.93;100435.86;1863444;77;21870;-78
2021/07/12 03:47:30;;;;;;;13.98;12.53;;;;;;;17.78;81.96;100433.67;1863419;76;20955;-78
2021/07/12 03:50:12;;;;;;;16.40;13.45;;;;;;;17.79;82.01;100441.25;1863637;77;20978;-77
2021/07/12 03:52:48;;;;;;;16.87;15.05;;;;;;;17.80;82.05;100424.03;1857763;77;21033;-76
2021/07/12 03:55:15;;;;;;;18.15;16.45;;;;;;;17.81;82.12;100424.31;1863032;77;21002;-75
2021/07/12 03:57:41;;;;;;;14.87;13.38;;;;;;;17.84;82.14;100427.41;1863601;77;21135;-75
2021/07/12 04:00:10;;;;;;;15.40;13.28;;;;;;;17.86;82.18;100423.98;1863489;76;21025;-75
2021/07/12 04:02:37;;;;;;;14.03;12.65;;;;;;;17.87;82.19;100417.52;1863611;76;20959;-75
2021/07/12 04:05:06;;;;;;;14.43;12.93;;;;;;;17.90;82.22;100418.98;1863360;77;21045;-75
2021/07/12 04:07:32;;;;;;;14.10;12.82;;;;;;;17.93;82.25;100415.84;1863677;77;21025;-74
2021/07/12 04:09:58;;;;;;;14.43;13.03;;;;;;;17.99;82.27;100410.92;1863080;77;21001;-74
2021/07/12 04:12:24;;;;;;;15.30;13.78;;;;;;;18.05;82.31;100403.84;1863393;77;21064;-74
2021/07/12 04:14:51;;;;;;;16.23;14.40;;;;;;;18.09;82.31;100412.61;1863420;77;20991;-74
2021/07/12 04:17:17;;;;;;;16.00;14.60;;;;;;;18.12;82.31;100402.72;1863471;77;20947;-74
2021/07/12 04:19:44;;;;;;;19.42;15.10;;;;;;;18.18;82.34;100405.09;1863694;77;20986;-74
2021/07/12 04:22:10;;;;;;;17.27;15.48;;;;;;;18.24;82.36;100408.25;1863447;77;21867;-74
2021/07/12 04:24:36;;;;;;;16.60;14.90;;;;;;;18.31;82.39;100411.20;1863085;77;20923;-74
2021/07/12 04:27:02;;;;;;;16.05;14.33;;;;;;;18.38;82.41;100417.38;1863404;77;21080;-73
2021/07/12 04:29:28;;;;;;;16.75;15.05;;;;;;;18.42;82.41;100415.90;1863486;77;21022;-74
2021/07/12 04:31:56;;;;;;;15.90;14.35;;;;;;;18.43;82.40;100418.91;1863328;77;21454;-73
2021/07/12 05:27:12;;;;;;;11.65;10.55;;;;;;;20.42;81.55;100478.09;1799878;79;23338;-73
2021/07/12 05:29:38;;;;;;;11.25;10.23;;;;;;;20.27;81.52;100469.56;1726116;83;20946;-73
2021/07/12 05:32:05;;;;;;;11.43;10.28;;;;;;;20.25;81.49;100464.89;1726075;83;21364;-72
2021/07/12 05:34:31;;;;;;;14.18;11.10;;;;;;;20.34;81.48;100463.52;1726156;83;21037;-72
2021/07/12 05:36:57;;;;;;;10.13;9.18;;;;;;;20.61;81.46;100456.33;1726103;83;21014;-73
2021/07/12 05:39:23;;;;;;;11.53;10.28;;;;;;;20.67;81.32;100448.61;1715960;83;21043;-72
2021/07/12 05:41:49;;;;;;;13.13;9.98;;;;;;;20.51;81.18;100437.13;1716068;83;21537;-72
2021/07/12 05:44:15;;;;;;;10.90;9.90;;;;;;;20.50;81.26;100433.58;1715608;82;22300;-72
2021/07/12 05:46:45;;;;;;;11.50;10.32;;;;;;;20.82;81.26;100431.36;1715826;82;21027;-72
2021/07/12 05:49:13;;;;;;;10.28;9.28;;;;;;;21.39;81.17;100427.77;1719227;83;20994;-72
2021/07/12 05:51:39;;;;;;;9.80;8.85;;;;;;;22.04;80.92;100419.30;1715504;83;21125;-72
2021/07/12 05:54:05;;;;;;;7.97;7.33;;;;;;;22.36;80.57;100412.78;1715518;82;20995;-72
2021/07/12 05:56:31;;;;;;;9.50;6.70;;;;;;;22.76;80.36;100402.56;1715738;83;21934;-72
2021/07/12 05:58:57;;;;;;;9.38;6.90;;;;;;;22.95;79.98;100397.67;1715701;83;21032;-72
2021/07/12 06:01:23;;;;;;;11.00;7.28;;;;;;;22.86;79.52;100399.19;1715652;82;21415;-72
2021/07/12 06:03:49;;;;;;;7.90;7.10;;;;;;;22.87;79.28;100388.57;1715704;83;20939;-72
2021/07/12 06:06:15;;;;;;;8.05;6.85;;;;;;;22.76;78.91;100393.60;1715685;83;21043;-72
2021/07/12 06:08:41;;;;;;;9.05;8.13;;;;;;;22.77;78.65;100389.79;1715833;83;21889;-72
2021/07/12 06:11:09;;;;;;;13.15;7.60;;;;;;;23.09;78.45;100393.52;1715706;83;21019;-72
2021/07/12 06:13:35;;;;;;;11.85;7.58;;;;;;;23.36;78.18;100399.84;1715665;83;21027;-72
2021/07/12 06:16:02;;;;;;;9.03;7.78;;;;;;;23.42;77.73;100413.56;1713290;82;21408;-72
2021/07/12 06:18:28;;;;;;;10.30;8.33;;;;;;;23.07;77.37;100424.24;1707128;83;21471;-72
2021/07/12 06:20:54;;;;;;;9.18;8.23;;;;;;;23.05;77.30;100437.78;1715846;83;22694;-72
2021/07/12 06:23:20;;;;;;;12.05;9.25;;;;;;;22.78;76.93;100452.63;1707024;83;20938;-72
2021/07/12 06:25:46;;;;;;;10.63;9.50;;;;;;;22.47;76.92;100461.34;1702724;83;20967;-72
2021/07/12 06:28:12;;;;;;;10.95;9.30;;;;;;;22.24;76.90;100463.11;1702688;83;21003;-72
2021/07/12 06:30:38;;;;;;;12.58;9.83;;;;;;;21.87;76.88;100465.92;1702923;84;20943;-72
2021/07/12 06:33:04;;;;;;;13.35;11.73;;;;;;;21.63;76.94;100453.50;1702609;82;21787;-72
2021/07/12 06:35:31;;;;;;;12.68;11.48;;;;;;;21.45;77.07;100448.23;1702483;84;21066;-72
2021/07/12 06:37:57;;;;;;;17.05;12.23;;;;;;;21.40;77.15;100441.63;1702460;84;21435;-72
2021/07/12 06:40:23;;;;;;;13.65;12.30;;;;;;;21.29;77.20;100445.19;1701716;84;20953;-72
2021/07/12 06:42:49;;;;;;;13.55;12.10;;;;;;;21.11;77.22;100452.11;1702251;84;21062;-72
2021/07/12 06:45:15;;;;;;;14.00;12.58;;;;;;;20.92;77.33;100464.13;1672112;84;21620;-72
2021/07/12 06:47:41;;;;;;;14.78;13.25;;;;;;;20.77;77.48;100463.77;1702255;84;21062;-72
2021/07/12 06:50:08;;;;;;;16.25;14.20;;;;;;;20.67;77.62;100477.07;1702156;83;21097;-72
2021/07/12 06:52:34;;;;;;;15.03;13.72;;;;;;;20.58;77.80;100473.06;1702114;84;21050;-72
2021/07/12 06:55:01;;;;;;;18.90;14.85;;;;;;;20.47;77.94;100454.90;1702304;84;21010;-72
2021/07/12 06:57:27;;;;;;;19.95;15.95;;;;;;;20.49;78.15;100440.58;1702212;84;21492;-74
2021/07/12 06:59:53;;;;;;;18.25;16.02;;;;;;;20.56;78.27;100441.30;1692506;84;21010;-74
2021/07/12 07:02:19;;;;;;;17.30;15.50;;;;;;;20.80;78.45;100445.67;1685274;84;21058;-73
2021/07/12 07:04:45;;;;;;;17.55;16.05;;;;;;;21.03;78.49;100438.07;1679583;84;21593;-73
2021/07/12 07:07:11;;;;;;;17.35;15.58;;;;;;;21.29;78.49;100430.27;1679899;84;21467;-73
2021/07/12 07:09:37;;;;;;;21.17;18.95;;;;;;;21.47;78.48;100427.92;1680472;84;21650;-73
2021/07/12 07:12:04;;;;;;;17.87;16.17;;;;;;;21.46;78.40;100429.02;1679389;84;21014;-73
2021/07/12 07:14:30;;;;;;;18.32;16.45;;;;;;;21.41;78.51;100440.58;1694837;84;21073;-73
2021/07/12 07:16:56;;;;;;;15.93;14.53;;;;;;;21.37;78.56;100443.47;1691215;84;21054;-73
2021/07/12 07:19:22;;;;;;;16.70;15.15;;;;;;;21.36;78.64;100443.70;1677780;84;21523;-73
2021/07/12 07:21:52;;;;;;;18.62;15.08;;;;;;;21.35;78.71;100436.12;1692774;84;22293;-73
2021/07/12 07:24:16;;;;;;;16.27;14.85;;;;;;;21.35;78.69;100430.69;1689142;84;21445;-73
2021/07/12 07:26:42;;;;;;;17.37;15.60;;;;;;;21.27;78.71;100429.70;1680454;84;21082;-73
2021/07/12 07:29:08;;;;;;;15.30;13.90;;;;;;;21.31;78.78;100436.83;1695172;84;21091;-72
2021/07/12 07:31:34;;;;;;;18.15;16.23;;;;;;;21.30;78.78;100436.00;1702519;82;21065;-72
2021/07/12 07:34:01;;;;;;;17.75;16.05;;;;;;;21.27;78.82;100441.91;1678940;84;21777;-72
2021/07/12 07:36:27;;;;;;;19.90;17.98;;;;;;;21.18;78.84;100469.09;1677005;84;21026;-73
2021/07/12 07:38:53;;;;;;;19.87;17.92;;;;;;;21.07;78.89;100479.41;1700547;84;21018;-73
2021/07/12 07:41:19;;;;;;;18.20;16.37;;;;;;;20.97;78.97;100487.28;1685249;84;21022;-73
2021/07/12 07:43:45;;;;;;;18.37;16.75;;;;;;;20.88;79.05;100490.89;1701110;84;21560;-72
2021/07/12 07:46:11;;;;;;;19.42;17.50;;;;;;;20.77;79.15;100492.22;1697115;84;21924;-72
2021/07/12 07:48:38;;;;;;;20.77;18.65;;;;;;;20.81;79.32;100490.70;1679725;84;20938;-72
2021/07/12 07:51:04;;;;;;;20.48;18.52;;;;;;;21.13;79.52;100494.76;1686387;84;21041;-73
2021/07/12 07:53:30;;;;;;;20.08;18.00;;;;;;;21.47;79.57;100485.44;1674006;84;21081;-72
2021/07/12 07:55:56;;;;;;;20.17;18.02;;;;;;;21.59;79.51;100491.69;1695422;83;21081;-72
2021/07/12 07:58:22;;;;;;;19.00;17.17;;;;;;;21.68;79.55;100499.73;1694089;84;21805;-72
2021/07/12 08:00:48;;;;;;;18.55;16.95;;;;;;;21.76;79.52;100494.77;1693879;84;21349;-72
2021/07/12 08:03:14;;;;;;;19.40;17.45;;;;;;;21.82;79.49;100497.04;1692271;84;21025;-72
2021/07/12 08:05:40;;;;;;;18.45;16.75;;;;;;;21.73;79.45;100490.35;1681210;84;21090;-72
2021/07/12 08:08:06;;;;;;;19.15;17.25;;;;;;;21.64;79.44;100495.88;1679235;84;21002;-72
2021/07/12 08:10:32;;;;;;;18.70;16.97;;;;;;;21.70;79.53;100496.27;1680335;84;21842;-72
2021/07/12 08:12:58;;;;;;;23.65;17.65;;;;;;;21.80;79.49;100493.75;1687381;83;21612;-72
2021/07/12 08:15:24;;;;;;;16.67;15.03;;;;;;;21.97;79.51;100489.23;1682364;83;21431;-72
2021/07/12 08:17:52;;;;;;;15.78;14.28;;;;;;;22.10;79.35;100491.65;1670559;83;20939;-72
2021/07/12 08:20:18;;;;;;;15.10;13.90;;;;;;;22.18;79.29;100493.98;1667315;84;21014;-72
2021/07/12 08:22:47;;;;;;;14.13;12.82;;;;;;;22.23;79.19;100487.30;1690581;83;21839;-72
2021/07/12 08:25:14;;;;;;;15.78;14.28;;;;;;;22.29;79.10;100474.09;1685191;84;21011;-72
2021/07/12 08:27:40;;;;;;;14.53;12.05;;;;;;;22.52;79.07;100468.23;1687668;84;21093;-71
2021/07/12 08:30:08;;;;;;;13.65;12.47;;;;;;;22.67;78.89;100458.98;1684527;84;21433;-72
2021/07/12 08:32:34;;;;;;;14.05;12.85;;;;;;;22.49;78.68;100463.27;1694510;82;21018;-71
2021/07/12 08:35:00;;;;;;;15.80;14.35;;;;;;;22.56;78.73;100453.87;1676440;84;21772;-71
2021/07/12 08:37:26;;;;;;;14.40;13.10;;;;;;;22.50;78.58;100444.53;1679139;84;21598;-71
2021/07/12 08:39:52;;;;;;;15.83;12.75;;;;;;;22.46;78.51;100440.66;1680186;84;20998;-72
2021/07/12 08:42:19;;;;;;;15.32;13.80;;;;;;;22.46;78.48;100439.30;1690726;82;21033;-71
2021/07/12 08:44:45;;;;;;;16.42;14.93;;;;;;;22.45;78.42;100436.31;1678161;84;21569;-71
2021/07/12 08:47:11;;;;;;;15.10;13.70;;;;;;;22.41;78.43;100447.65;1683671;84;22614;-71
2021/07/12 08:49:37;;;;;;;15.65;14.28;;;;;;;22.19;78.35;100445.91;1677152;84;20997;-71
2021/07/12 08:52:04;;;;;;;17.60;15.75;;;;;;;22.10;78.45;100450.91;1685612;83;20994;-71
2021/07/12 08:54:31;;;;;;;15.45;14.07;;;;;;;22.12;78.46;100444.71;1682806;84;21077;-72
2021/07/12 08:56:57;;;;;;;16.82;15.20;;;;;;;21.98;78.36;100438.46;1690367;82;21411;-70
2021/07/12 08:59:31;;;;;;;16.85;15.20;;;;;;;21.95;78.45;100437.06;1687191;82;22828;-71
2021/07/12 09:02:10;;;;;;;16.97;15.28;;;;;;;21.85;78.48;100432.74;1703987;82;20941;-70
2021/07/12 09:04:41;;;;;;;15.68;14.25;;;;;;;21.80;78.56;100433.49;1696663;82;21493;-71
2021/07/12 09:07:09;;;;;;;16.20;14.70;;;;;;;21.76;78.61;100430.14;1693264;82;21045;-70
2021/07/12 09:09:36;;;;;;;16.90;15.40;;;;;;;21.80;78.65;100432.66;1700913;82;21058;-70
2021/07/12 09:12:17;;;;;;;17.37;15.88;;;;;;;21.79;78.64;100433.19;1697486;82;21831;-70
2021/07/12 09:15:11;;;;;;;17.00;15.35;;;;;;;21.86;78.68;100435.23;1685547;82;21069;-70
2021/07/12 09:17:40;;;;;;;17.10;15.58;;;;;;;21.85;78.60;100434.09;1704294;82;21007;-71
2021/07/12 09:20:08;;;;;;;;;;;;;;;21.80;78.64;100440.81;1701737;82;21029;-70
2021/07/12 09:22:38;;;;;;;18.32;16.70;;;;;;;21.92;78.77;100436.16;1703543;82;20146;-71
2021/07/12 09:25:11;;;;;;;18.62;16.80;;;;;;;22.12;78.81;100441.16;1706214;82;21842;-70
2021/07/12 09:27:39;;;;;;;18.02;14.93;;;;;;;22.19;78.70;100431.80;1691072;82;21489;-70
2021/07/12 09:30:09;;;;;;;18.73;16.77;;;;;;;22.29;78.66;100437.94;1695496;82;21040;-70
2021/07/12 09:32:36;;;;;;;17.07;15.30;;;;;;;22.52;78.71;100432.89;1694370;82;21056;-70
2021/07/12 09:35:15;;;;;;;17.90;16.10;;;;;;;22.66;78.55;100436.93;1702273;82;21034;-70
2021/07/12 09:37:45;;;;;;;16.52;14.98;;;;;;;22.73;78.53;100438.41;1682243;82;21963;-70
2021/07/12 09:40:14;;;;;;;16.75;14.93;;;;;;;22.90;78.39;100429.70;1702062;82;21485;-71
2021/07/12 09:42:43;;;;;;;17.62;15.78;;;;;;;22.99;78.28;100432.82;1686875;82;21471;-70
2021/07/12 09:45:11;;;;;;;15.70;14.13;;;;;;;23.04;78.14;100430.19;1705985;82;21055;-70
2021/07/12 09:47:40;;;;;;;14.50;13.00;;;;;;;23.07;78.11;100433.77;1697211;82;21498;-70
2021/07/12 09:50:18;;;;;;;16.45;12.25;;;;;;;23.20;78.06;100423.87;1675899;84;21841;-70
2021/07/12 09:52:52;;;;;;;13.30;11.87;;;;;;;23.38;77.85;100415.40;1668541;84;21040;-70
2021/07/12 09:55:30;;;;;;;10.38;9.38;;;;;;;23.70;77.71;100401.09;1684351;85;21024;-70
2021/07/12 09:58:17;;;;;;;11.22;10.23;;;;;;;23.87;77.35;100393.64;1731523;82;21055;-71
2021/07/12 10:00:55;;;;;;;10.82;9.83;;;;;;;23.99;77.03;100394.86;1721127;83;21005;-70
2021/07/12 10:03:21;;;;;;;9.58;8.78;;;;;;;24.09;76.68;100399.86;1723487;82;21839;-71
2021/07/12 10:05:48;;;;;;;11.12;8.98;;;;;;;24.32;76.46;100413.70;1711613;83;21003;-70
2021/07/12 10:08:14;;;;;;;9.38;8.58;;;;;;;24.49;76.17;100413.59;1705890;83;21007;-71
2021/07/12 10:10:40;;;;;;;9.10;8.30;;;;;;;24.60;75.70;100413.92;1695286;83;21527;-71
2021/07/12 10:13:06;;;;;;;11.43;9.53;;;;;;;24.38;75.33;100417.58;1715159;83;21823;-70
2021/07/12 10:15:34;;;;;;;12.88;11.18;;;;;;;24.14;75.05;100420.36;1706514;83;22638;-70
2021/07/12 10:18:00;;;;;;;10.90;9.55;;;;;;;24.00;74.74;100416.37;1717184;83;21059;-71
2021/07/12 10:20:26;;;;;;;10.08;9.10;;;;;;;23.94;74.55;100425.59;1718592;83;21412;-70
2021/07/12 10:22:58;;;;;;;10.15;9.15;;;;;;;23.82;74.25;100426.27;1711980;83;21128;-71
2021/07/12 10:25:26;;;;;;;10.68;9.70;;;;;;;23.75;74.11;100429.76;1713193;83;21479;-71
2021/07/12 10:27:59;;;;;;;8.83;8.03;;;;;;;23.63;73.99;100429.06;1685722;83;21966;-71
2021/07/12 10:30:47;;;;;;;7.58;6.35;;;;;;;23.51;73.80;100429.72;1710307;82;21004;-71
2021/07/12 10:33:18;;;;;;;7.35;6.60;;;;;;;23.43;73.77;100431.55;1660769;84;21077;-71
2021/07/12 10:35:57;;;;;;;8.88;6.87;;;;;;;23.58;73.59;100427.63;1676080;84;21069;-71
2021/07/12 10:38:26;;;;;;;7.58;5.90;;;;;;;23.51;73.37;100418.83;1672593;84;21479;-71
2021/07/12 10:40:57;;;;;;;7.90;7.10;;;;;;;23.39;73.23;100421.67;1669325;85;21821;-71
2021/07/12 10:43:45;;;;;;;6.40;5.80;;;;;;;23.28;73.11;100416.64;1671271;85;21010;-71
2021/07/12 10:46:32;;;;;;;5.60;5.10;;;;;;;23.35;73.12;100413.72;1679009;84;21509;-71
2021/07/12 10:49:26;;;;;;;7.35;5.75;;;;;;;23.44;73.00;100416.30;1675662;84;21020;-71
2021/07/12 10:51:52;;;;;;;6.15;5.37;;;;;;;23.43;72.88;100420.66;1681430;84;21050;-71
2021/07/12 10:54:18;;;;;;;7.40;4.85;;;;;;;23.34;72.80;100421.06;1699690;84;22019;-71
2021/07/12 10:56:59;;;;;;;7.20;5.80;;;;;;;23.28;72.69;100420.72;1699301;84;21483;-71
2021/07/12 10:59:31;;;;;;;6.75;5.47;;;;;;;23.29;72.55;100423.70;1671115;84;21049;-71
2021/07/12 11:01:59;;;;;;;9.38;5.97;;;;;;;23.45;72.50;100417.13;1671325;85;20998;-71
2021/07/12 11:04:50;;;;;;;7.72;5.17;;;;;;;23.67;72.40;100411.14;1671453;85;21506;-71
2021/07/12 11:07:16;;;;;;;5.75;4.65;;;;;;;23.96;72.33;100412.52;1677819;84;21479;-71
2021/07/12 11:09:52;;;;;;;6.17;5.47;;;;;;;24.22;72.14;100411.73;1675746;84;21045;-72
2021/07/12 11:12:33;;;;;;;7.25;6.35;;;;;;;24.38;71.86;100399.85;1695051;84;21056;-72
2021/07/12 11:15:25;;;;;;;5.87;5.00;;;;;;;24.72;71.62;100398.20;1698456;84;21028;-71
2021/07/12 11:18:02;;;;;;;6.22;5.72;;;;;;;25.02;71.29;100390.77;1691760;84;20979;-72
2021/07/12 11:21:00;;;;;;;5.45;4.90;;;;;;;25.05;70.84;100382.86;1700917;84;21873;-72
2021/07/12 11:23:56;;;;;;;14.63;5.70;;;;;;;24.98;70.42;100381.48;1673744;85;21012;-72
2021/07/12 11:26:29;;;;;;;7.25;5.90;;;;;;;24.56;70.23;100378.74;1687266;84;21009;-72
2021/07/12 11:29:22;;;;;;;6.70;5.55;;;;;;;24.65;70.29;100370.34;1679038;84;21474;-72
2021/07/12 11:32:07;;;;;;;6.00;5.40;;;;;;;24.76;69.86;100363.86;1673853;85;21070;-72
2021/07/12 11:34:46;;;;;;;6.78;6.15;;;;;;;25.05;69.71;100356.94;1673583;85;21787;-73
2021/07/12 11:37:15;;;;;;;5.50;4.83;;;;;;;25.29;69.40;100354.06;1673968;85;21502;-72
2021/07/12 11:39:50;;;;;;;5.35;4.92;;;;;;;25.47;69.07;100353.30;1678113;84;21053;-72
2021/07/12 11:42:33;;;;;;;5.42;4.92;;;;;;;25.20;68.36;100347.45;1690748;84;21098;-72
2021/07/12 11:45:14;;;;;;;5.95;4.12;;;;;;;25.24;68.14;100352.66;1678198;84;21014;-72
2021/07/12 11:47:47;;;;;;;6.58;4.97;;;;;;;25.13;67.49;100353.70;1682871;83;21837;-72
2021/07/12 11:50:17;;;;;;;5.83;5.22;;;;;;;25.01;67.02;100362.67;1685513;84;21053;-72
2021/07/12 11:52:48;;;;;;;5.85;5.33;;;;;;;24.87;66.83;100357.95;1701875;84;21070;-72
2021/07/12 11:55:17;;;;;;;5.92;5.42;;;;;;;25.09;66.85;100355.32;1701938;84;21031;-72
2021/07/12 11:57:46;;;;;;;6.00;5.50;;;;;;;25.25;66.64;100357.59;1702119;84;21054;-72
2021/07/12 12:00:18;;;;;;;;;;;;;;;25.44;66.43;100348.38;1674379;84;21925;-72
2021/07/12 12:02:44;;;;;;;5.70;5.20;;;;;;;25.66;66.14;100355.27;1702048;84;20460;-73
2021/07/12 12:05:12;;;;;;;5.30;4.80;;;;;;;25.50;65.73;100355.48;1702025;84;21379;-73
2021/07/12 12:07:48;;;;;;;5.45;4.80;;;;;;;25.19;65.34;100351.27;1702124;84;20991;-73
2021/07/12 12:10:23;;;;;;;5.92;5.42;;;;;;;24.96;65.21;100350.36;1702041;84;21074;-72
2021/07/12 12:13:00;;;;;;;5.83;5.33;;;;;;;25.00;65.19;100347.92;1701870;84;21704;-73
2021/07/12 12:15:31;;;;;;;6.42;5.17;;;;;;;25.12;65.10;100349.90;1701479;84;21497;-73
2021/07/12 12:18:09;;;;;;;5.75;5.25;;;;;;;25.29;65.08;100344.50;1702297;84;20983;-73
2021/07/12 12:20:50;;;;;;;5.90;5.40;;;;;;;25.42;64.96;100343.70;1702060;84;22218;-73
2021/07/12 12:23:25;;;;;;;5.60;5.00;;;;;;;25.33;64.78;100342.06;1701764;84;21010;-73
2021/07/12 12:26:01;;;;;;;6.17;5.58;;;;;;;25.46;64.82;100337.45;1700186;84;22426;-73
2021/07/12 12:28:38;;;;;;;5.78;5.17;;;;;;;25.72;64.72;100337.00;1674424;84;21026;-73